Time;durP1;ratioP1;P1;durP2;ratioP2;P2;SDS_P1;SDS_P2;PMS_P1;PMS_P2;Temp;Humidity;BMP_temperature;BMP_pressure;BME280_temperature;BME280_humidity;BME280_pressure;Samples;Min_cycle;Max_cycle;Signal;HPM_P1;HPM_P2
2022/11/12 00:00:20;;;;;;;45.70;27.30;;;10.50;99.90;;;;;;5095359;28;20286;-74
2022/11/12 00:02:45;;;;;;;43.80;27.10;;;10.50;99.90;;;;;;5113762;28;20665;-74
2022/11/12 00:05:11;;;;;;;45.87;28.97;;;10.60;99.90;;;;;;5095169;28;20196;-73
2022/11/12 00:07:37;;;;;;;39.67;24.93;;;10.60;99.90;;;;;;5113690;28;20218;-73
2022/11/12 00:10:03;;;;;;;41.60;26.20;;;10.60;99.90;;;;;;5113573;28;20664;-73
2022/11/12 00:12:29;;;;;;;42.33;25.55;;;10.60;99.90;;;;;;5095433;28;20276;-73
2022/11/12 00:14:54;;;;;;;39.90;25.77;;;10.60;99.90;;;;;;5113529;28;20302;-73
2022/11/12 00:17:20;;;;;;;39.70;25.40;;;10.60;99.90;;;;;;5113604;28;20182;-73
2022/11/12 00:19:46;;;;;;;43.80;24.97;;;10.60;99.90;;;;;;5095102;28;20196;-72
2022/11/12 00:22:11;;;;;;;35.70;25.17;;;10.60;99.90;;;;;;5115816;28;20671;-74
2022/11/12 00:24:37;;;;;;;34.67;23.23;;;10.60;99.90;;;;;;5116982;28;20672;-74
2022/11/12 00:27:03;;;;;;;42.00;24.30;;;10.60;99.90;;;;;;5117569;28;20225;-73
2022/11/12 00:29:28;;;;;;;42.03;24.30;;;10.60;99.90;;;;;;5098671;28;20566;-73
2022/11/12 00:31:54;;;;;;;39.80;24.40;;;10.50;99.90;;;;;;5098998;28;20617;-74
2022/11/12 00:34:19;;;;;;;42.27;23.70;;;10.50;99.90;;;;;;5098630;28;20223;-74
2022/11/12 00:36:45;;;;;;;37.70;23.30;;;10.50;99.90;;;;;;5098920;28;20187;-73
2022/11/12 00:39:11;;;;;;;35.67;23.40;;;10.40;99.90;;;;;;5116790;28;20171;-74
2022/11/12 00:41:36;;;;;;;40.00;24.07;;;10.40;99.90;;;;;;5098773;28;20541;-73
2022/11/12 00:44:02;;;;;;;37.80;22.93;;;10.40;99.90;;;;;;5098575;28;20176;-74
2022/11/12 00:46:28;;;;;;;33.43;22.90;;;10.40;99.90;;;;;;5117343;28;20683;-74
2022/11/12 00:48:53;;;;;;;39.50;24.77;;;10.40;99.90;;;;;;5116777;28;20164;-74
2022/11/12 00:51:19;;;;;;;33.33;23.60;;;10.50;99.90;;;;;;5098486;28;20196;-73
2022/11/12 00:53:49;;;;;;;35.60;23.77;;;10.40;99.90;;;;;;5116645;28;20212;-73
2022/11/12 00:56:15;;;;;;;36.40;22.63;;;10.40;99.90;;;;;;5098284;28;20538;-74
2022/11/12 00:58:41;;;;;;;40.80;24.40;;;10.40;99.90;;;;;;5116592;28;20700;-74
2022/11/12 01:01:13;;;;;;;40.67;25.07;;;10.40;99.90;;;;;;5116615;28;20227;-73
2022/11/12 01:03:39;;;;;;;42.53;26.92;;;10.30;99.90;;;;;;5098120;28;20980;-73
2022/11/12 01:06:08;;;;;;;39.28;24.23;;;10.30;99.90;;;;;;5116541;28;20533;-73
2022/11/12 01:08:34;;;;;;;33.33;23.98;;;10.30;99.90;;;;;;5116398;28;20599;-73
2022/11/12 01:11:10;;;;;;;38.90;24.40;;;10.20;99.90;;;;;;5116098;28;20223;-73
2022/11/12 01:13:37;;;;;;;39.88;25.85;;;10.20;99.90;;;;;;5116437;28;20203;-73
2022/11/12 01:16:08;;;;;;;39.10;26.55;;;10.10;99.90;;;;;;5116360;28;20187;-73
2022/11/12 01:18:34;;;;;;;42.53;26.80;;;10.10;99.90;;;;;;5097867;28;20225;-74
2022/11/12 01:21:01;;;;;;;40.70;25.50;;;10.10;99.90;;;;;;5097722;28;20207;-73
2022/11/12 01:23:27;;;;;;;36.55;24.23;;;10.10;99.90;;;;;;5116105;28;20172;-73
2022/11/12 01:25:53;;;;;;;37.80;24.47;;;10.10;99.90;;;;;;5116039;28;20230;-73
2022/11/12 01:28:19;;;;;;;47.73;27.03;;;10.10;99.90;;;;;;5097584;28;20489;-74
2022/11/12 01:30:44;;;;;;;41.00;26.73;;;10.10;99.90;;;;;;5097693;28;20436;-74
2022/11/12 01:33:10;;;;;;;41.40;27.03;;;10.10;99.90;;;;;;5096502;28;20683;-72
2022/11/12 01:35:36;;;;;;;39.20;24.93;;;10.10;99.90;;;;;;5097486;28;20222;-74
2022/11/12 01:38:01;;;;;;;43.60;26.07;;;10.10;99.90;;;;;;5097545;28;20554;-73
2022/11/12 01:40:27;;;;;;;41.80;25.43;;;10.10;99.90;;;;;;5097320;28;20202;-74
2022/11/12 01:42:53;;;;;;;35.90;24.83;;;10.10;99.90;;;;;;5097687;28;20175;-73
2022/11/12 01:45:19;;;;;;;44.50;25.63;;;10.20;99.90;;;;;;5115621;28;20668;-73
2022/11/12 01:47:47;;;;;;;36.15;25.27;;;10.20;99.90;;;;;;5097264;28;20522;-74
2022/11/12 01:50:32;;;;;;;37.97;24.30;;;10.20;99.90;;;;;;5115415;28;20544;-73
2022/11/12 01:53:01;;;;;;;36.38;22.85;;;10.20;99.90;;;;;;5115407;28;20200;-75
2022/11/12 01:55:33;;;;;;;36.90;22.63;;;10.20;99.90;;;;;;5115208;28;20192;-74
2022/11/12 01:58:08;;;;;;;39.40;23.00;;;10.20;99.90;;;;;;5097179;28;20171;-75
2022/11/12 02:00:34;;;;;;;38.85;24.45;;;10.30;99.90;;;;;;5097134;28;20229;-74
2022/11/12 02:03:01;;;;;;;36.80;24.50;;;10.30;99.90;;;;;;5115297;28;20179;-74
2022/11/12 02:05:29;;;;;;;37.50;24.55;;;10.30;99.90;;;;;;5096758;28;20197;-74
2022/11/12 02:07:57;;;;;;;38.25;25.08;;;10.30;99.90;;;;;;5096928;28;20182;-74
2022/11/12 02:10:24;;;;;;;66.72;35.80;;;10.30;99.90;;;;;;5115090;28;20199;-73
2022/11/12 02:15:37;;;;;;;83.22;42.15;;;10.30;99.90;;;;;;5115079;28;20228;-74
2022/11/12 02:18:04;;;;;;;59.22;33.03;;;10.30;99.90;;;;;;5115019;28;20640;-73
2022/11/12 02:20:37;;;;;;;56.97;31.30;;;10.30;99.90;;;;;;5115056;28;20195;-73
2022/11/12 02:23:04;;;;;;;43.95;27.33;;;10.30;99.90;;;;;;5096689;28;20653;-74
2022/11/12 02:25:30;;;;;;;36.88;26.20;;;10.20;99.90;;;;;;5114799;28;20239;-73
2022/11/12 02:27:57;;;;;;;37.77;25.27;;;10.20;99.90;;;;;;5114863;28;20172;-74
2022/11/12 02:30:34;;;;;;;34.72;22.08;;;10.20;99.90;;;;;;5096326;28;20443;-74
2022/11/12 02:33:00;;;;;;;45.55;24.40;;;10.20;99.90;;;;;;5114616;28;20208;-74
2022/11/12 02:35:26;;;;;;;40.37;23.27;;;10.20;99.90;;;;;;5114582;28;20198;-73
2022/11/12 02:37:52;;;;;;;37.53;24.13;;;10.20;99.90;;;;;;5114614;28;20199;-73
2022/11/12 02:40:17;;;;;;;37.80;24.30;;;10.20;99.90;;;;;;5096195;28;20842;-74
2022/11/12 02:42:43;;;;;;;35.60;22.97;;;10.20;99.90;;;;;;5096317;28;20548;-73
2022/11/12 02:45:09;;;;;;;34.43;23.43;;;10.20;99.90;;;;;;5095964;28;20529;-74
2022/11/12 02:47:35;;;;;;;37.45;24.13;;;10.20;99.90;;;;;;5096204;28;20187;-73
2022/11/12 02:50:01;;;;;;;37.13;22.87;;;10.10;99.90;;;;;;5114495;28;22063;-74
2022/11/12 02:52:26;;;;;;;44.53;25.47;;;10.10;99.90;;;;;;5114398;28;20176;-72
2022/11/12 02:54:52;;;;;;;39.70;24.30;;;10.10;99.90;;;;;;5114172;28;20755;-73
2022/11/12 02:57:17;;;;;;;36.80;25.10;;;10.20;99.90;;;;;;5114331;28;20199;-73
2022/11/12 02:59:43;;;;;;;38.53;24.47;;;10.20;99.90;;;;;;5095953;28;20198;-73
2022/11/12 03:02:09;;;;;;;42.67;25.73;;;10.20;99.90;;;;;;5096109;28;20266;-73
2022/11/12 03:04:35;;;;;;;35.53;24.00;;;10.10;99.90;;;;;;5096013;28;20226;-74
2022/11/12 03:07:00;;;;;;;37.87;23.57;;;10.10;99.90;;;;;;5114762;28;20510;-73
2022/11/12 03:09:26;;;;;;;36.57;23.33;;;10.10;99.90;;;;;;5114104;28;20194;-73
2022/11/12 03:11:51;;;;;;;41.13;24.97;;;10.10;99.90;;;;;;5096192;28;20207;-74
2022/11/12 03:14:17;;;;;;;38.23;23.13;;;10.10;99.90;;;;;;5114008;28;20678;-74
2022/11/12 03:16:43;;;;;;;36.67;24.30;;;10.10;99.90;;;;;;5114656;28;20644;-74
2022/11/12 03:19:08;;;;;;;37.40;24.53;;;10.10;99.90;;;;;;5095779;28;20256;-73
2022/11/12 03:21:34;;;;;;;40.10;24.53;;;10.10;99.90;;;;;;5114615;28;20176;-73
2022/11/12 03:24:01;;;;;;;32.40;22.60;;;10.10;99.90;;;;;;5114075;28;20341;-74
2022/11/12 03:26:26;;;;;;;43.08;24.90;;;10.10;99.90;;;;;;5114243;28;20330;-73
2022/11/12 03:28:52;;;;;;;34.90;22.87;;;10.10;99.90;;;;;;5095754;28;20266;-73
2022/11/12 03:31:18;;;;;;;40.13;25.13;;;10.20;99.90;;;;;;5095803;28;20819;-73
2022/11/12 03:33:44;;;;;;;39.17;26.67;;;10.10;99.90;;;;;;5113869;28;20203;-74
2022/11/12 03:36:10;;;;;;;53.75;29.58;;;10.10;99.90;;;;;;5095472;28;20491;-74
2022/11/12 03:38:36;;;;;;;40.53;25.38;;;10.10;99.90;;;;;;5113958;28;20263;-73
2022/11/12 03:41:45;;;;;;;39.00;26.27;;;10.20;99.90;;;;;;5114116;28;20220;-73
2022/11/12 03:44:11;;;;;;;32.45;23.23;;;10.10;99.90;;;;;;5095565;28;20573;-73
2022/11/12 03:46:36;;;;;;;40.17;25.50;;;10.10;99.90;;;;;;5114376;28;20187;-74
2022/11/12 03:49:02;;;;;;;39.67;23.83;;;10.10;99.90;;;;;;5113822;28;20172;-74
2022/11/12 03:51:28;;;;;;;39.70;23.60;;;10.20;99.90;;;;;;5113822;28;20172;-73
2022/11/12 03:53:53;;;;;;;35.93;23.80;;;10.10;99.90;;;;;;5113763;28;20196;-74
2022/11/12 03:56:19;;;;;;;34.63;23.20;;;10.20;99.90;;;;;;5115035;28;20206;-73
2022/11/12 03:58:45;;;;;;;36.90;24.00;;;10.10;99.90;;;;;;5099375;28;20182;-74
2022/11/12 04:01:10;;;;;;;38.50;23.73;;;10.20;99.90;;;;;;5117810;28;20215;-73
2022/11/12 04:03:36;;;;;;;36.93;23.30;;;10.20;99.90;;;;;;5099341;28;20183;-73
2022/11/12 04:08:46;;;;;;;33.75;22.75;;;10.20;99.90;;;;;;5117963;28;20579;-73
2022/11/12 04:11:15;;;;;;;36.27;25.40;;;10.20;99.90;;;;;;5099217;28;20203;-73
2022/11/12 04:13:44;;;;;;;32.50;22.92;;;10.20;99.90;;;;;;5099101;28;20211;-73
2022/11/12 04:21:50;;;;;;;37.22;23.17;;;10.20;99.90;;;;;;5117521;28;20190;-73
2022/11/12 04:27:07;;;;;;;36.50;24.13;;;10.20;99.90;;;;;;5117752;28;20283;-73
2022/11/12 04:30:15;;;;;;;38.17;23.67;;;10.20;99.90;;;;;;5117136;28;20623;-74
2022/11/12 04:32:22;;;;;;;37.17;24.20;;;10.20;99.90;;;;;;5111243;28;20248;-73
2022/11/12 04:34:48;;;;;;;42.33;24.27;;;10.20;99.90;;;;;;5116737;28;20221;-73
2022/11/12 04:37:14;;;;;;;34.60;22.50;;;10.20;99.90;;;;;;5116959;28;20656;-73
2022/11/12 04:39:40;;;;;;;36.97;24.37;;;10.30;99.90;;;;;;5116956;28;20439;-73
2022/11/12 04:44:58;;;;;;;35.03;24.45;;;10.30;99.90;;;;;;5116836;28;20728;-73
2022/11/12 04:47:25;;;;;;;35.17;23.40;;;10.30;99.90;;;;;;5098524;28;20554;-74
2022/11/12 04:49:51;;;;;;;27.92;20.08;;;10.30;99.90;;;;;;5098715;28;20188;-73
2022/11/12 04:52:17;;;;;;;34.57;21.80;;;10.30;99.90;;;;;;5098327;28;20176;-72
2022/11/12 04:54:43;;;;;;;33.88;22.30;;;10.30;99.90;;;;;;5116336;28;20467;-73
2022/11/12 04:57:08;;;;;;;32.67;22.57;;;10.20;99.90;;;;;;5116599;28;20172;-74
2022/11/12 04:59:34;;;;;;;33.00;22.73;;;10.20;99.90;;;;;;5098116;28;20443;-74
2022/11/12 05:02:00;;;;;;;33.10;23.37;;;10.20;99.90;;;;;;5098353;28;20214;-74
2022/11/12 05:04:27;;;;;;;44.70;30.10;;;10.20;99.90;;;;;;5116368;28;20191;-74
2022/11/12 05:06:55;;;;;;;61.58;37.35;;;10.20;99.90;;;;;;5098310;28;20203;-73
2022/11/12 05:09:23;;;;;;;48.20;29.85;;;10.20;99.90;;;;;;5116253;28;20574;-74
2022/11/12 05:11:49;;;;;;;41.15;25.52;;;10.20;99.90;;;;;;5098299;28;20179;-74
2022/11/12 05:14:15;;;;;;;43.37;28.27;;;10.30;99.90;;;;;;5097820;28;20684;-74
2022/11/12 05:16:41;;;;;;;38.43;24.93;;;10.30;99.90;;;;;;5098191;28;20506;-74
2022/11/12 05:19:07;;;;;;;49.33;30.50;;;10.30;99.90;;;;;;5116098;28;20412;-74
2022/11/12 05:24:17;;;;;;;41.63;28.35;;;10.30;99.90;;;;;;5116292;28;20183;-74
2022/11/12 05:26:43;;;;;;;53.27;32.83;;;10.30;99.90;;;;;;5094603;28;20228;-74
2022/11/12 05:29:08;;;;;;;47.00;30.00;;;10.30;99.90;;;;;;5095403;28;20180;-74
2022/11/12 05:31:34;;;;;;;45.53;29.77;;;10.30;99.90;;;;;;5095437;28;20812;-73
2022/11/12 05:34:00;;;;;;;43.57;28.90;;;10.30;99.90;;;;;;5095459;28;20596;-73
2022/11/12 05:36:25;;;;;;;40.00;24.87;;;10.30;99.90;;;;;;5094325;28;20272;-74
2022/11/12 05:38:51;;;;;;;45.17;28.17;;;10.30;99.90;;;;;;5095364;28;20185;-73
2022/11/12 05:41:16;;;;;;;42.43;27.77;;;10.30;99.90;;;;;;5095068;28;20214;-74
2022/11/12 05:43:42;;;;;;;41.37;27.57;;;10.30;99.90;;;;;;5094051;28;20187;-74
2022/11/12 05:46:09;;;;;;;44.70;25.80;;;10.40;99.90;;;;;;5093966;28;20200;-74
2022/11/12 05:48:34;;;;;;;49.93;31.03;;;10.40;99.90;;;;;;5093872;28;20287;-73
2022/11/12 05:51:00;;;;;;;47.17;31.80;;;10.40;99.90;;;;;;5094991;28;20527;-74
2022/11/12 05:53:26;;;;;;;45.90;30.23;;;10.40;99.90;;;;;;5093735;28;20219;-73
2022/11/12 05:55:51;;;;;;;52.20;32.37;;;10.40;99.90;;;;;;5095324;28;20245;-74
2022/11/12 05:58:17;;;;;;;65.23;39.30;;;10.40;99.90;;;;;;5095044;28;20523;-72
2022/11/12 06:00:42;;;;;;;61.77;37.90;;;10.40;99.90;;;;;;5093434;28;20200;-73
2022/11/12 06:03:09;;;;;;;70.33;38.73;;;10.50;99.90;;;;;;5093596;28;20660;-74
2022/11/12 06:05:35;;;;;;;63.38;37.55;;;10.40;99.90;;;;;;5093467;28;20570;-73
2022/11/12 06:08:02;;;;;;;65.53;38.90;;;10.40;99.90;;;;;;5094853;28;20177;-73
2022/11/12 06:10:29;;;;;;;67.53;39.65;;;10.50;99.90;;;;;;5094663;28;20196;-73
2022/11/12 06:12:54;;;;;;;63.65;38.85;;;10.50;99.90;;;;;;5093388;28;20173;-74
2022/11/12 06:15:20;;;;;;;64.30;38.80;;;10.50;99.90;;;;;;5093296;28;20207;-74
2022/11/12 06:17:47;;;;;;;65.00;37.65;;;10.50;99.90;;;;;;5093423;28;20184;-75
2022/11/12 06:20:13;;;;;;;53.67;34.37;;;10.50;99.90;;;;;;5092679;28;20279;-74
2022/11/12 06:22:38;;;;;;;59.30;34.87;;;10.50;99.90;;;;;;5093620;28;20421;-74
2022/11/12 06:25:04;;;;;;;50.80;31.20;;;10.60;99.90;;;;;;5099767;28;20495;-73
2022/11/12 06:27:30;;;;;;;49.00;31.07;;;10.60;99.90;;;;;;5114120;28;20293;-73
2022/11/12 06:29:56;;;;;;;57.38;33.72;;;10.60;99.90;;;;;;5095647;28;20436;-74
2022/11/12 06:32:23;;;;;;;50.83;31.17;;;10.60;99.90;;;;;;5113969;28;20663;-73
2022/11/12 06:34:49;;;;;;;49.13;30.30;;;10.60;99.90;;;;;;5095478;28;20215;-73
2022/11/12 06:37:15;;;;;;;53.33;32.20;;;10.60;99.90;;;;;;5095600;28;20179;-73
2022/11/12 06:39:41;;;;;;;59.33;35.20;;;10.60;99.90;;;;;;5113784;28;20461;-73
2022/11/12 06:42:06;;;;;;;55.43;31.47;;;10.60;99.90;;;;;;5113797;28;20184;-73
2022/11/12 06:44:32;;;;;;;53.47;30.67;;;10.60;99.90;;;;;;5095465;28;20284;-74
2022/11/12 06:46:58;;;;;;;45.03;28.13;;;10.60;99.90;;;;;;5095794;28;20179;-74
2022/11/12 06:49:23;;;;;;;43.17;28.60;;;10.60;99.90;;;;;;5113678;28;20276;-73
2022/11/12 06:51:50;;;;;;;42.50;27.57;;;10.60;99.90;;;;;;5114062;28;20172;-73
2022/11/12 06:54:15;;;;;;;48.30;28.50;;;10.60;99.90;;;;;;5095036;28;20211;-74
2022/11/12 06:56:41;;;;;;;50.30;30.63;;;10.60;99.90;;;;;;5112827;28;20408;-74
2022/11/12 06:59:07;;;;;;;61.17;37.97;;;10.60;99.90;;;;;;5113174;28;20202;-74
2022/11/12 07:01:32;;;;;;;60.17;35.13;;;10.70;99.90;;;;;;5095379;28;20229;-74
2022/11/12 07:03:58;;;;;;;48.70;32.50;;;10.70;99.90;;;;;;5113600;28;20179;-74
2022/11/12 07:06:24;;;;;;;49.43;32.93;;;10.70;99.90;;;;;;5113698;28;20212;-74
2022/11/12 07:08:50;;;;;;;45.07;30.43;;;10.70;99.90;;;;;;5113516;28;20224;-74
2022/11/12 07:11:18;;;;;;;44.30;28.30;;;10.70;99.90;;;;;;5113534;28;20203;-74
2022/11/12 07:13:45;;;;;;;39.40;26.23;;;10.70;99.90;;;;;;5095094;28;20474;-73
2022/11/12 07:16:11;;;;;;;38.23;23.40;;;10.70;99.90;;;;;;5112282;28;20432;-74
2022/11/12 07:18:37;;;;;;;34.73;23.27;;;10.70;99.90;;;;;;5092826;28;20849;-73
2022/11/12 07:21:06;;;;;;;34.92;23.52;;;10.80;99.90;;;;;;5111288;28;20450;-74
2022/11/12 07:23:33;;;;;;;32.63;23.13;;;10.80;99.90;;;;;;5092834;28;20628;-74
2022/11/12 07:26:00;;;;;;;32.80;23.10;;;10.80;99.90;;;;;;5046687;28;1315377;-74
2022/11/12 07:28:27;;;;;;;33.60;21.92;;;10.80;99.90;;;;;;5112202;28;20385;-73
2022/11/12 07:31:04;;;;;;;31.58;20.95;;;10.70;99.90;;;;;;5113835;28;20196;-74
2022/11/12 07:33:31;;;;;;;35.35;22.80;;;10.70;99.90;;;;;;5118261;28;20195;-74
2022/11/12 07:36:01;;;;;;;31.25;21.00;;;10.80;99.90;;;;;;5099725;28;20195;-74
2022/11/12 07:38:31;;;;;;;38.05;22.70;;;10.70;99.90;;;;;;5118181;28;20621;-74
2022/11/12 07:41:05;;;;;;;32.92;21.33;;;10.70;99.90;;;;;;5118179;28;20243;-73
2022/11/12 07:43:32;;;;;;;33.67;21.85;;;10.80;99.90;;;;;;5118134;28;20160;-73
2022/11/12 07:46:06;;;;;;;36.03;22.10;;;10.80;99.90;;;;;;5099520;28;20561;-74
2022/11/12 07:48:32;;;;;;;35.95;23.52;;;10.80;99.90;;;;;;5099759;28;20557;-73
2022/11/12 07:51:04;;;;;;;33.25;23.02;;;10.80;99.90;;;;;;5118082;28;20223;-74
2022/11/12 07:53:30;;;;;;;35.33;22.67;;;10.80;99.90;;;;;;5099487;28;20265;-74
2022/11/12 07:55:57;;;;;;;29.00;21.17;;;10.80;99.90;;;;;;5099508;28;20200;-74
2022/11/12 07:58:23;;;;;;;29.80;20.27;;;10.90;99.90;;;;;;5099453;28;20535;-74
2022/11/12 08:00:49;;;;;;;31.43;20.53;;;10.90;99.90;;;;;;5099370;28;20246;-73
2022/11/12 08:03:15;;;;;;;34.75;21.15;;;10.90;99.90;;;;;;5117641;28;20400;-74
2022/11/12 08:05:40;;;;;;;32.80;20.00;;;10.90;99.90;;;;;;5099177;28;20211;-74
2022/11/12 08:08:06;;;;;;;30.73;21.23;;;11.00;99.90;;;;;;5099186;28;20180;-74
2022/11/12 08:10:32;;;;;;;37.57;24.23;;;11.00;99.90;;;;;;5117663;28;20276;-74
2022/11/12 08:12:57;;;;;;;34.87;22.90;;;11.10;99.90;;;;;;5117305;28;20175;-74
2022/11/12 08:15:23;;;;;;;41.80;26.67;;;11.10;99.90;;;;;;5099029;28;20207;-73
2022/11/12 08:17:49;;;;;;;42.23;26.17;;;11.10;99.90;;;;;;5099066;28;20176;-72
2022/11/12 08:20:14;;;;;;;39.77;25.33;;;11.20;99.90;;;;;;5098935;28;20611;-74
2022/11/12 08:22:40;;;;;;;33.73;23.10;;;11.20;99.90;;;;;;5117306;28;20176;-73
2022/11/12 08:25:06;;;;;;;36.80;23.67;;;11.20;99.90;;;;;;5116944;28;20228;-73
2022/11/12 08:27:32;;;;;;;41.30;23.83;;;11.30;99.90;;;;;;5099078;28;20194;-72
2022/11/12 08:29:58;;;;;;;32.70;23.30;;;11.30;99.90;;;;;;5098818;28;20423;-74
2022/11/12 08:32:24;;;;;;;38.23;24.00;;;11.30;99.90;;;;;;5114114;28;20408;-73
2022/11/12 08:34:49;;;;;;;33.30;23.63;;;11.40;99.90;;;;;;5100417;28;20300;-74
2022/11/12 08:37:15;;;;;;;34.67;24.90;;;11.40;99.90;;;;;;5098644;28;20185;-74
2022/11/12 08:39:41;;;;;;;35.40;22.33;;;11.50;99.90;;;;;;5103324;28;20258;-74
2022/11/12 08:42:07;;;;;;;42.57;24.97;;;11.50;99.90;;;;;;5077848;28;20435;-74
2022/11/12 08:44:33;;;;;;;33.40;24.00;;;11.60;99.90;;;;;;5088674;28;20448;-74
2022/11/12 08:46:59;;;;;;;32.83;23.33;;;11.70;99.90;;;;;;5097944;28;20275;-74
2022/11/12 08:49:24;;;;;;;33.47;22.80;;;11.80;99.90;;;;;;5097879;28;20618;-73
2022/11/12 08:51:50;;;;;;;34.27;22.40;;;11.80;99.90;;;;;;5087360;28;20441;-74
2022/11/12 08:54:16;;;;;;;38.77;24.07;;;12.00;99.90;;;;;;5082966;28;20298;-73
2022/11/12 08:56:42;;;;;;;39.10;24.00;;;12.20;99.90;;;;;;5115664;28;20860;-73
2022/11/12 08:59:07;;;;;;;31.97;20.53;;;12.50;99.90;;;;;;5115361;28;20489;-74
2022/11/12 09:01:33;;;;;;;34.63;21.43;;;13.00;99.90;;;;;;5116157;28;20583;-73
2022/11/12 09:03:59;;;;;;;32.33;19.20;;;13.60;99.90;;;;;;5096983;28;20574;-73
2022/11/12 09:06:24;;;;;;;30.00;21.87;;;14.10;99.90;;;;;;5116204;28;20552;-73
2022/11/12 09:08:50;;;;;;;32.93;21.30;;;14.60;99.90;;;;;;5116264;28;20179;-73
2022/11/12 09:11:16;;;;;;;26.73;17.87;;;15.00;99.90;;;;;;5115957;28;20211;-73
2022/11/12 09:13:42;;;;;;;32.20;20.43;;;15.20;99.90;;;;;;5108062;28;20294;-73
2022/11/12 09:16:09;;;;;;;26.50;18.63;;;15.30;99.90;;;;;;5095964;28;20551;-74
2022/11/12 09:18:35;;;;;;;24.10;16.80;;;15.40;99.90;;;;;;5115419;28;20221;-73
2022/11/12 09:21:10;;;;;;;27.40;17.80;;;15.50;99.90;;;;;;5097429;28;21013;-73
2022/11/12 09:23:36;;;;;;;27.23;16.43;;;15.40;99.90;;;;;;5096234;28;20480;-73
2022/11/12 09:26:03;;;;;;;26.43;17.47;;;15.40;99.90;;;;;;5103474;28;20465;-73
2022/11/12 09:28:28;;;;;;;23.53;16.50;;;15.40;99.90;;;;;;5095497;28;20432;-73
2022/11/12 09:30:54;;;;;;;25.43;16.60;;;15.40;99.90;;;;;;5093696;28;21008;-73
2022/11/12 09:33:22;;;;;;;22.73;15.80;;;15.40;99.90;;;;;;5115133;28;20242;-73
2022/11/12 09:35:48;;;;;;;27.10;17.90;;;15.50;99.90;;;;;;5097074;28;20491;-73
2022/11/12 09:38:14;;;;;;;27.07;17.60;;;15.50;99.90;;;;;;5097394;28;20426;-73
2022/11/12 09:40:51;;;;;;;25.83;17.97;;;15.60;99.90;;;;;;5113488;28;20439;-73
2022/11/12 09:43:38;;;;;;;26.30;16.37;;;15.70;99.90;;;;;;5096277;28;20968;-73
2022/11/12 09:46:24;;;;;;;22.50;17.40;;;15.70;99.90;;;;;;5111190;28;20795;-73
2022/11/12 09:48:55;;;;;;;28.43;18.70;;;15.80;99.90;;;;;;5113426;28;20400;-73
2022/11/12 09:51:32;;;;;;;25.53;18.00;;;15.80;99.90;;;;;;5113278;28;20463;-73
2022/11/12 09:54:16;;;;;;;31.40;18.87;;;15.90;99.90;;;;;;5093583;28;20458;-73
2022/11/12 09:56:42;;;;;;;26.90;16.90;;;15.90;99.90;;;;;;5105396;28;20458;-73
2022/11/12 09:59:12;;;;;;;22.13;15.40;;;15.90;99.90;;;;;;5096484;28;20401;-73
2022/11/12 10:01:53;;;;;;;28.63;18.40;;;16.00;99.90;;;;;;5096373;28;20485;-73
2022/11/12 10:04:47;;;;;;;25.93;16.47;;;16.10;99.90;;;;;;5107388;28;20420;-73
2022/11/12 10:07:31;;;;;;;22.80;17.07;;;16.10;99.90;;;;;;5080439;28;20975;-74
2022/11/12 10:10:10;;;;;;;29.60;18.00;;;16.10;99.90;;;;;;5106918;28;20572;-73
2022/11/12 10:13:04;;;;;;;25.47;18.33;;;16.20;99.90;;;;;;5077454;28;20428;-73
2022/11/12 10:18:26;;;;;;;20.60;13.03;;;16.30;99.90;;;;;;5115232;28;20388;-73
2022/11/12 10:21:14;;;;;;;14.93;11.80;;;16.30;99.90;;;;;;5114252;28;20952;-73
2022/11/12 10:23:43;;;;;;;22.97;13.70;;;16.30;99.90;;;;;;5095810;28;20415;-73
2022/11/12 10:26:15;;;;;;;18.77;12.43;;;16.30;99.90;;;;;;5114566;28;20961;-73
2022/11/12 10:29:00;;;;;;;20.90;11.50;;;16.30;99.90;;;;;;5114254;28;20396;-74
2022/11/12 10:31:26;;;;;;;15.67;11.80;;;16.40;99.90;;;;;;5096204;28;20518;-73
2022/11/12 10:34:15;;;;;;;19.30;13.00;;;16.50;99.90;;;;;;5114345;28;20539;-73
2022/11/12 10:37:03;;;;;;;15.97;11.00;;;16.50;99.90;;;;;;5096589;28;20188;-73
2022/11/12 10:39:41;;;;;;;17.20;11.13;;;16.60;99.90;;;;;;5113391;28;20868;-74
2022/11/12 10:42:13;;;;;;;14.37;10.87;;;16.60;99.90;;;;;;5114202;28;20431;-74
2022/11/12 10:44:41;;;;;;;15.30;11.70;;;16.70;99.90;;;;;;5095632;28;20433;-73
2022/11/12 10:47:45;;;;;;;15.47;11.07;;;16.70;99.90;;;;;;5090678;28;20421;-73
2022/11/12 10:50:21;;;;;;;16.67;11.20;;;16.70;99.90;;;;;;5095894;28;20986;-73
2022/11/12 10:52:56;;;;;;;17.10;11.17;;;16.80;99.90;;;;;;5113812;28;20412;-72
2022/11/12 10:55:28;;;;;;;19.50;11.60;;;16.80;99.90;;;;;;5113758;28;20487;-73
2022/11/12 10:58:20;;;;;;;14.50;9.80;;;16.80;99.90;;;;;;5114299;28;20392;-73
2022/11/12 11:00:59;;;;;;;18.23;12.80;;;16.80;99.90;;;;;;5109376;28;20452;-72
2022/11/12 11:03:28;;;;;;;18.40;12.13;;;16.80;99.90;;;;;;5095769;28;21004;-73
2022/11/12 11:05:58;;;;;;;20.30;14.70;;;16.80;99.90;;;;;;5113824;28;20948;-73
2022/11/12 11:08:45;;;;;;;24.03;15.23;;;16.70;99.90;;;;;;5114183;28;20393;-73
2022/11/12 11:11:27;;;;;;;31.27;20.40;;;16.70;99.90;;;;;;5113581;28;20445;-73
2022/11/12 11:14:16;;;;;;;21.57;13.67;;;16.70;99.90;;;;;;5095798;28;20992;-73
2022/11/12 11:17:00;;;;;;;19.50;12.60;;;16.60;99.90;;;;;;5112537;28;20460;-74
2022/11/12 11:19:34;;;;;;;17.80;11.57;;;16.60;99.90;;;;;;5111463;28;20428;-74
2022/11/12 11:22:18;;;;;;;20.73;12.13;;;16.60;99.90;;;;;;5093616;28;20836;-73
2022/11/12 11:25:02;;;;;;;17.90;11.83;;;16.70;99.90;;;;;;5092823;28;20541;-73
2022/11/12 11:27:37;;;;;;;16.50;12.30;;;16.70;99.90;;;;;;5093851;28;20415;-73
2022/11/12 11:30:06;;;;;;;17.43;12.63;;;16.70;99.90;;;;;;5093742;28;20994;-74
2022/11/12 11:33:09;;;;;;;14.40;12.10;;;16.70;99.90;;;;;;5095331;28;20424;-74
2022/11/12 11:35:56;;;;;;;15.83;12.27;;;16.70;99.90;;;;;;5113441;28;20458;-73
2022/11/12 11:38:28;;;;;;;18.90;13.80;;;16.70;99.90;;;;;;5113836;28;20485;-75
2022/11/12 11:41:19;;;;;;;18.27;13.20;;;16.60;99.90;;;;;;5095286;28;20459;-75
2022/11/12 11:43:53;;;;;;;20.00;13.90;;;16.60;99.90;;;;;;5113697;28;20415;-74
2022/11/12 11:46:31;;;;;;;17.53;12.00;;;16.60;99.90;;;;;;5113596;28;20448;-75
2022/11/12 11:49:14;;;;;;;17.10;11.67;;;16.70;99.90;;;;;;5113606;28;20447;-74
2022/11/12 11:52:09;;;;;;;15.43;11.60;;;16.70;99.90;;;;;;5114091;28;20425;-75
2022/11/12 11:55:04;;;;;;;17.70;12.40;;;16.70;99.90;;;;;;5112775;28;20480;-74
2022/11/12 11:57:43;;;;;;;22.10;14.27;;;16.70;99.90;;;;;;5095294;28;20429;-74
2022/11/12 12:00:20;;;;;;;20.00;13.70;;;16.70;99.90;;;;;;5095103;28;20432;-74
2022/11/12 12:03:21;;;;;;;22.60;13.03;;;16.70;99.90;;;;;;5113145;28;20404;-74
2022/11/12 12:05:55;;;;;;;18.20;12.30;;;16.60;99.90;;;;;;4990053;28;20476;-74
2022/11/12 12:08:34;;;;;;;18.70;12.03;;;16.60;99.90;;;;;;5075385;28;20429;-74
2022/11/12 12:11:31;;;;;;;20.93;14.03;;;16.60;99.90;;;;;;5087988;28;20830;-74
2022/11/12 12:14:13;;;;;;;19.93;13.87;;;16.60;99.90;;;;;;5075985;28;20476;-74
2022/11/12 12:17:23;;;;;;;25.30;17.03;;;16.50;99.90;;;;;;5093159;28;20641;-73
2022/11/12 12:20:04;;;;;;;22.50;15.80;;;16.50;99.90;;;;;;5075865;28;20440;-74
2022/11/12 12:22:48;;;;;;;25.13;16.43;;;16.40;99.90;;;;;;5116612;28;20459;-76
2022/11/12 12:25:24;;;;;;;20.90;14.57;;;16.40;99.90;;;;;;5107764;27;20474;-75
2022/11/12 12:28:01;;;;;;;17.23;12.57;;;16.30;99.90;;;;;;5098646;28;20430;-75
2022/11/12 12:30:33;;;;;;;18.43;12.77;;;16.30;99.90;;;;;;5116694;28;20450;-75
2022/11/12 12:33:08;;;;;;;15.63;11.40;;;16.20;99.90;;;;;;5116504;28;20381;-74
2022/11/12 12:35:48;;;;;;;20.03;13.43;;;16.20;99.90;;;;;;5113185;28;20796;-74
2022/11/12 12:38:23;;;;;;;16.23;11.23;;;16.20;99.90;;;;;;5084254;28;20795;-75
2022/11/12 12:41:03;;;;;;;12.83;9.43;;;16.20;99.90;;;;;;5093151;28;20454;-74
2022/11/12 12:43:41;;;;;;;15.50;10.90;;;16.20;99.90;;;;;;5097370;28;20806;-74
2022/11/12 12:46:11;;;;;;;22.77;15.07;;;16.30;99.90;;;;;;5095536;28;20551;-74
2022/11/12 12:48:41;;;;;;;18.17;13.00;;;16.30;99.90;;;;;;5097806;28;20408;-74
2022/11/12 12:51:06;;;;;;;22.33;15.13;;;16.30;99.90;;;;;;5097785;28;20448;-74
2022/11/12 12:53:35;;;;;;;18.33;12.33;;;16.30;99.90;;;;;;5097124;28;20990;-74
2022/11/12 12:56:25;;;;;;;19.80;13.50;;;16.30;99.90;;;;;;5097408;28;20482;-75
2022/11/12 12:58:51;;;;;;;14.43;10.53;;;16.40;99.90;;;;;;5115985;28;20414;-74
2022/11/12 13:01:20;;;;;;;25.00;14.73;;;16.40;99.90;;;;;;5097261;28;20924;-75
2022/11/12 13:03:51;;;;;;;17.23;12.60;;;16.40;99.90;;;;;;5096959;28;20413;-74